Ash Fork, AZ

3:17 PM MST on July 23, 2016 (GMT -0700)
Rural Coconino County AZ, 3 miles north of Ash Fork, AZ | | Change Station

Elev 5410 ft 35.27 °N, 112.49 °W | Updated 6 seconds ago

Clear
Clear
97.9 °F
Feels Like 93 °F
N
2.0
Wind Variable Wind from ESE
Gusts 4.9 mph

Today
High -- | Low -- °F
--% Chance of Precip.
Yesterday
High -- | Low -- °F
Precip. -- in
Pressure 30.33 in
Visibility 10.0 miles
Clouds Clear
Heat Index 93 °F
Dew Point 32 °F
Humidity 10%
Rainfall 0.00 in
Snow Depth Not available.
5:32 AM 7:39 PM
Waning Gibbous, 82% visible
METAR KCMR 232155Z AUTO 00000KT 10SM CLR 30/04 A3033 RMK AO2
Pressure 30.33 in
Visibility 10.0 miles
Clouds Clear
Heat Index 93 °F
Dew Point 32 °F
Humidity 10%
Rainfall 0.00 in
Snow Depth Not available.
5:32 AM 7:39 PM
Waning Gibbous, 82% visible
METAR KCMR 232155Z AUTO 00000KT 10SM CLR 30/04 A3033 RMK AO2

10-Day Weather Forecast

Almanac

Astronomy

Jul. 23, 2016 Rise Set
Actual Time
Civil Twilight
Nautical Twilight
Astronomical Twilight
Moon
Length of Visible Light
Length of Day
Tomorrow will be .
, % of the Moon is Illuminated

Today's Extremes

State Highs State Lows

Community

WunderPhotos

Upload Photos

1,926,940 photos uploaded!

WunderBlog® & News

Nearby

Air Quality

  Air Quality AQ Index Pollutant
Not available.

Snow Depth

Station Depth Elevation

Earthquake Activity

City Distance Mag. Time & Date
Minimum magnitude displayed is 2.5.

Coastal Water Temperatures

Place Temperature

Stations

Nearby Weather Stations

Station Location Temp. Windchill Dew Point Humidity Wind Precip. Elev Updated Type
                   

Watches & Warnings

There are currently no watches in effect.